Melrose, New Mexico
Current Conditions -  °F | °C
As of 12:56 PM on Monday 22 Dec 2014 (Local Time) from K4MR Reporting Station
Clear Clear  
Wind Chill: 44°   Ceiling: Unl
Heat Index: 49°   Visibility: 10mi
Dew Point: 25°   Wind: 12mph
Humidity: 40%   Direction: 70°ENE
Pressure: 29.71"   Gusts: 15mph
Location:  34.43°N, 103.63°W
Report Text: K4MR 221956Z AUTO 07010G13KT 10SM CLR 10/M04 A2971 RMK AO2 SLP035 T00951037
Loading
Personal Weather Stations






























Interactive Weather Map New forecast layout! Learn more

10-Day Weather Forecast

Advertisements
Track Severe Weather on mobile